sensor_id;sensor_type;location;lat;lon;timestamp;temperature;humidity
7174;DHT22;3628;48.654;8.932;2024-02-23T00:01:44;5.30;99.90
7174;DHT22;3628;48.654;8.932;2024-02-23T00:04:10;5.30;99.90
7174;DHT22;3628;48.654;8.932;2024-02-23T00:06:35;5.30;99.90
7174;DHT22;3628;48.654;8.932;2024-02-23T00:09:01;5.30;99.90
7174;DHT22;3628;48.654;8.932;2024-02-23T00:11:26;5.30;99.90
7174;DHT22;3628;48.654;8.932;2024-02-23T00:13:53;5.30;99.90
7174;DHT22;3628;48.654;8.932;2024-02-23T00:16:19;5.40;99.90
7174;DHT22;3628;48.654;8.932;2024-02-23T00:18:45;5.40;99.90
7174;DHT22;3628;48.654;8.932;2024-02-23T00:21:10;5.40;99.90
7174;DHT22;3628;48.654;8.932;2024-02-23T00:23:36;5.40;99.90
7174;DHT22;3628;48.654;8.932;2024-02-23T00:26:02;5.40;99.90
7174;DHT22;3628;48.654;8.932;2024-02-23T00:28:27;5.40;99.90
7174;DHT22;3628;48.654;8.932;2024-02-23T00:30:53;5.40;99.90
7174;DHT22;3628;48.654;8.932;2024-02-23T00:33:18;5.50;99.90
7174;DHT22;3628;48.654;8.932;2024-02-23T00:35:44;5.50;99.90
7174;DHT22;3628;48.654;8.932;2024-02-23T00:38:09;5.40;99.90
7174;DHT22;3628;48.654;8.932;2024-02-23T00:40:35;5.50;99.90
7174;DHT22;3628;48.654;8.932;2024-02-23T00:43:01;5.50;99.90
7174;DHT22;3628;48.654;8.932;2024-02-23T00:45:28;5.50;99.90
7174;DHT22;3628;48.654;8.932;2024-02-23T00:47:54;5.40;99.90
7174;DHT22;3628;48.654;8.932;2024-02-23T00:50:19;5.50;99.90
7174;DHT22;3628;48.654;8.932;2024-02-23T00:52:45;5.40;99.90
7174;DHT22;3628;48.654;8.932;2024-02-23T00:55:10;5.40;99.90
7174;DHT22;3628;48.654;8.932;2024-02-23T00:57:37;5.40;99.90
7174;DHT22;3628;48.654;8.932;2024-02-23T01:00:04;5.40;99.90
7174;DHT22;3628;48.654;8.932;2024-02-23T01:02:31;5.40;99.90
7174;DHT22;3628;48.654;8.932;2024-02-23T01:04:56;5.40;99.90
7174;DHT22;3628;48.654;8.932;2024-02-23T01:07:24;5.40;99.90
7174;DHT22;3628;48.654;8.932;2024-02-23T01:09:50;5.40;99.90
7174;DHT22;3628;48.654;8.932;2024-02-23T01:12:15;5.40;99.90
7174;DHT22;3628;48.654;8.932;2024-02-23T01:14:41;5.40;99.90
7174;DHT22;3628;48.654;8.932;2024-02-23T01:17:06;5.40;99.90
7174;DHT22;3628;48.654;8.932;2024-02-23T01:19:32;5.40;99.90
7174;DHT22;3628;48.654;8.932;2024-02-23T01:21:58;5.40;99.90
7174;DHT22;3628;48.654;8.932;2024-02-23T01:24:27;5.40;99.90
7174;DHT22;3628;48.654;8.932;2024-02-23T01:26:56;5.40;99.90
7174;DHT22;3628;48.654;8.932;2024-02-23T01:29:22;5.30;99.90
7174;DHT22;3628;48.654;8.932;2024-02-23T01:31:48;5.30;99.90
7174;DHT22;3628;48.654;8.932;2024-02-23T01:34:14;5.30;99.90
7174;DHT22;3628;48.654;8.932;2024-02-23T01:36:40;5.30;99.90
7174;DHT22;3628;48.654;8.932;2024-02-23T01:39:05;5.20;99.90
7174;DHT22;3628;48.654;8.932;2024-02-23T01:41:32;5.20;99.90
7174;DHT22;3628;48.654;8.932;2024-02-23T01:43:58;5.20;99.90
7174;DHT22;3628;48.654;8.932;2024-02-23T01:46:24;5.20;99.90
7174;DHT22;3628;48.654;8.932;2024-02-23T01:48:49;5.20;99.90
7174;DHT22;3628;48.654;8.932;2024-02-23T01:51:16;5.20;99.90
7174;DHT22;3628;48.654;8.932;2024-02-23T01:53:41;5.10;99.90
7174;DHT22;3628;48.654;8.932;2024-02-23T01:56:08;5.10;99.90
7174;DHT22;3628;48.654;8.932;2024-02-23T01:58:35;5.10;99.90
7174;DHT22;3628;48.654;8.932;2024-02-23T02:01:02;5.10;99.90
7174;DHT22;3628;48.654;8.932;2024-02-23T02:03:28;5.10;99.90
7174;DHT22;3628;48.654;8.932;2024-02-23T02:05:54;5.10;99.90
7174;DHT22;3628;48.654;8.932;2024-02-23T02:08:20;5.10;99.90
7174;DHT22;3628;48.654;8.932;2024-02-23T02:10:46;5.10;99.90
7174;DHT22;3628;48.654;8.932;2024-02-23T02:13:12;5.10;99.90
7174;DHT22;3628;48.654;8.932;2024-02-23T02:15:38;5.10;99.90
7174;DHT22;3628;48.654;8.932;2024-02-23T02:18:04;5.10;99.90
7174;DHT22;3628;48.654;8.932;2024-02-23T02:20:32;5.10;99.90
7174;DHT22;3628;48.654;8.932;2024-02-23T02:22:58;5.10;99.90
7174;DHT22;3628;48.654;8.932;2024-02-23T02:25:24;5.10;99.90
7174;DHT22;3628;48.654;8.932;2024-02-23T02:27:50;5.10;99.90
7174;DHT22;3628;48.654;8.932;2024-02-23T02:30:15;5.10;99.90
7174;DHT22;3628;48.654;8.932;2024-02-23T02:32:41;5.10;99.90
7174;DHT22;3628;48.654;8.932;2024-02-23T02:35:07;5.10;99.90
7174;DHT22;3628;48.654;8.932;2024-02-23T02:37:32;5.00;99.90
7174;DHT22;3628;48.654;8.932;2024-02-23T02:39:58;5.10;99.90
7174;DHT22;3628;48.654;8.932;2024-02-23T02:42:24;5.10;99.90
7174;DHT22;3628;48.654;8.932;2024-02-23T02:44:49;5.10;99.90
7174;DHT22;3628;48.654;8.932;2024-02-23T02:47:15;5.00;99.90
7174;DHT22;3628;48.654;8.932;2024-02-23T02:49:40;5.10;99.90
7174;DHT22;3628;48.654;8.932;2024-02-23T02:52:06;5.10;99.90
7174;DHT22;3628;48.654;8.932;2024-02-23T02:54:33;5.00;99.90
7174;DHT22;3628;48.654;8.932;2024-02-23T02:56:59;5.00;99.90
7174;DHT22;3628;48.654;8.932;2024-02-23T02:59:24;5.00;99.90
7174;DHT22;3628;48.654;8.932;2024-02-23T03:01:50;5.00;99.90
7174;DHT22;3628;48.654;8.932;2024-02-23T03:04:16;5.00;99.90
7174;DHT22;3628;48.654;8.932;2024-02-23T03:06:41;4.90;99.90
7174;DHT22;3628;48.654;8.932;2024-02-23T03:09:07;4.90;99.90
7174;DHT22;3628;48.654;8.932;2024-02-23T03:11:33;4.90;99.90
7174;DHT22;3628;48.654;8.932;2024-02-23T03:13:58;4.90;99.90
7174;DHT22;3628;48.654;8.932;2024-02-23T03:16:24;4.80;99.90
7174;DHT22;3628;48.654;8.932;2024-02-23T03:18:51;4.80;99.90
7174;DHT22;3628;48.654;8.932;2024-02-23T03:21:19;4.80;99.90
7174;DHT22;3628;48.654;8.932;2024-02-23T03:23:45;4.70;99.90
7174;DHT22;3628;48.654;8.932;2024-02-23T03:26:10;4.70;99.90
7174;DHT22;3628;48.654;8.932;2024-02-23T03:28:36;4.80;99.90
7174;DHT22;3628;48.654;8.932;2024-02-23T03:31:02;4.80;99.90
7174;DHT22;3628;48.654;8.932;2024-02-23T03:33:27;4.70;99.90
7174;DHT22;3628;48.654;8.932;2024-02-23T03:35:53;4.80;99.90
7174;DHT22;3628;48.654;8.932;2024-02-23T03:38:18;4.70;99.90
7174;DHT22;3628;48.654;8.932;2024-02-23T03:40:44;4.70;99.90
7174;DHT22;3628;48.654;8.932;2024-02-23T03:43:10;4.70;99.90
7174;DHT22;3628;48.654;8.932;2024-02-23T03:45:35;4.60;99.90
7174;DHT22;3628;48.654;8.932;2024-02-23T03:48:03;4.60;99.90
7174;DHT22;3628;48.654;8.932;2024-02-23T03:50:29;4.60;99.90
7174;DHT22;3628;48.654;8.932;2024-02-23T03:52:55;4.50;99.90
7174;DHT22;3628;48.654;8.932;2024-02-23T03:55:21;4.50;99.90
7174;DHT22;3628;48.654;8.932;2024-02-23T03:57:47;4.50;99.90
7174;DHT22;3628;48.654;8.932;2024-02-23T04:00:13;4.50;99.90
7174;DHT22;3628;48.654;8.932;2024-02-23T04:02:39;4.40;99.90
7174;DHT22;3628;48.654;8.932;2024-02-23T04:05:05;4.40;99.90
7174;DHT22;3628;48.654;8.932;2024-02-23T04:07:31;4.40;99.90
7174;DHT22;3628;48.654;8.932;2024-02-23T04:09:57;4.40;99.90
7174;DHT22;3628;48.654;8.932;2024-02-23T04:12:23;4.40;99.90
7174;DHT22;3628;48.654;8.932;2024-02-23T04:14:48;4.30;99.90
7174;DHT22;3628;48.654;8.932;2024-02-23T04:17:14;4.30;99.90
7174;DHT22;3628;48.654;8.932;2024-02-23T04:19:40;4.30;99.90
7174;DHT22;3628;48.654;8.932;2024-02-23T04:22:06;4.30;99.90
7174;DHT22;3628;48.654;8.932;2024-02-23T04:24:39;4.30;99.90
7174;DHT22;3628;48.654;8.932;2024-02-23T04:27:05;4.30;99.90
7174;DHT22;3628;48.654;8.932;2024-02-23T04:29:31;4.30;99.90
7174;DHT22;3628;48.654;8.932;2024-02-23T04:32:00;4.30;99.90
7174;DHT22;3628;48.654;8.932;2024-02-23T04:34:27;4.30;99.90
7174;DHT22;3628;48.654;8.932;2024-02-23T04:36:52;4.30;99.90
7174;DHT22;3628;48.654;8.932;2024-02-23T04:39:18;4.20;99.90
7174;DHT22;3628;48.654;8.932;2024-02-23T04:41:44;4.20;99.90
7174;DHT22;3628;48.654;8.932;2024-02-23T04:44:09;4.20;99.90
7174;DHT22;3628;48.654;8.932;2024-02-23T04:46:35;4.20;99.90
7174;DHT22;3628;48.654;8.932;2024-02-23T04:49:02;4.20;99.90
7174;DHT22;3628;48.654;8.932;2024-02-23T04:51:27;4.20;99.90
7174;DHT22;3628;48.654;8.932;2024-02-23T04:53:53;4.20;99.90
7174;DHT22;3628;48.654;8.932;2024-02-23T04:56:19;4.20;99.90
7174;DHT22;3628;48.654;8.932;2024-02-23T04:58:44;4.20;99.90
7174;DHT22;3628;48.654;8.932;2024-02-23T05:01:10;4.20;99.90
7174;DHT22;3628;48.654;8.932;2024-02-23T05:03:36;4.20;99.90
7174;DHT22;3628;48.654;8.932;2024-02-23T05:06:03;4.20;99.90
7174;DHT22;3628;48.654;8.932;2024-02-23T05:08:28;4.20;99.90
7174;DHT22;3628;48.654;8.932;2024-02-23T05:10:58;4.20;99.90
7174;DHT22;3628;48.654;8.932;2024-02-23T05:13:24;4.20;99.90
7174;DHT22;3628;48.654;8.932;2024-02-23T05:15:50;4.20;99.90
7174;DHT22;3628;48.654;8.932;2024-02-23T05:18:15;4.20;99.90
7174;DHT22;3628;48.654;8.932;2024-02-23T05:20:41;4.20;99.90
7174;DHT22;3628;48.654;8.932;2024-02-23T05:23:06;4.20;99.90
7174;DHT22;3628;48.654;8.932;2024-02-23T05:25:32;4.10;99.90
7174;DHT22;3628;48.654;8.932;2024-02-23T05:27:58;4.10;99.90
7174;DHT22;3628;48.654;8.932;2024-02-23T05:30:23;4.10;99.90
7174;DHT22;3628;48.654;8.932;2024-02-23T05:32:49;4.10;99.90
7174;DHT22;3628;48.654;8.932;2024-02-23T05:35:14;4.10;99.90
7174;DHT22;3628;48.654;8.932;2024-02-23T05:37:41;4.10;99.90
7174;DHT22;3628;48.654;8.932;2024-02-23T05:40:07;4.00;99.90
7174;DHT22;3628;48.654;8.932;2024-02-23T05:42:39;4.00;99.90
7174;DHT22;3628;48.654;8.932;2024-02-23T05:45:06;4.00;99.90
7174;DHT22;3628;48.654;8.932;2024-02-23T05:47:40;4.00;99.90
7174;DHT22;3628;48.654;8.932;2024-02-23T05:50:08;3.90;99.90
7174;DHT22;3628;48.654;8.932;2024-02-23T05:52:34;3.90;99.90
7174;DHT22;3628;48.654;8.932;2024-02-23T05:55:02;3.80;99.90
7174;DHT22;3628;48.654;8.932;2024-02-23T05:57:29;3.80;99.90
7174;DHT22;3628;48.654;8.932;2024-02-23T05:59:55;3.80;99.90
7174;DHT22;3628;48.654;8.932;2024-02-23T06:02:21;3.70;99.90
7174;DHT22;3628;48.654;8.932;2024-02-23T06:04:47;3.60;99.90
7174;DHT22;3628;48.654;8.932;2024-02-23T06:07:13;3.70;99.90
7174;DHT22;3628;48.654;8.932;2024-02-23T06:09:42;3.70;99.90
7174;DHT22;3628;48.654;8.932;2024-02-23T06:12:08;3.60;99.90
7174;DHT22;3628;48.654;8.932;2024-02-23T06:14:35;3.70;99.90
7174;DHT22;3628;48.654;8.932;2024-02-23T06:17:01;3.70;99.90
7174;DHT22;3628;48.654;8.932;2024-02-23T06:19:26;3.70;99.90
7174;DHT22;3628;48.654;8.932;2024-02-23T06:21:52;3.70;99.90
7174;DHT22;3628;48.654;8.932;2024-02-23T06:24:18;3.80;99.90
7174;DHT22;3628;48.654;8.932;2024-02-23T06:26:43;3.80;99.90
7174;DHT22;3628;48.654;8.932;2024-02-23T06:29:11;3.90;99.90
7174;DHT22;3628;48.654;8.932;2024-02-23T06:31:38;3.90;99.90
7174;DHT22;3628;48.654;8.932;2024-02-23T06:34:04;4.00;99.90
7174;DHT22;3628;48.654;8.932;2024-02-23T06:36:30;4.00;99.90
7174;DHT22;3628;48.654;8.932;2024-02-23T06:38:55;4.00;99.90
7174;DHT22;3628;48.654;8.932;2024-02-23T06:41:21;4.10;99.90
7174;DHT22;3628;48.654;8.932;2024-02-23T06:43:47;4.00;99.90
7174;DHT22;3628;48.654;8.932;2024-02-23T06:46:12;4.00;99.90
7174;DHT22;3628;48.654;8.932;2024-02-23T06:48:38;4.00;99.90
7174;DHT22;3628;48.654;8.932;2024-02-23T06:51:07;4.00;99.90
7174;DHT22;3628;48.654;8.932;2024-02-23T06:53:35;4.00;99.90
7174;DHT22;3628;48.654;8.932;2024-02-23T06:56:01;4.00;99.90
7174;DHT22;3628;48.654;8.932;2024-02-23T06:58:27;4.00;99.90
7174;DHT22;3628;48.654;8.932;2024-02-23T07:00:53;4.00;99.90
7174;DHT22;3628;48.654;8.932;2024-02-23T07:03:19;4.00;99.90
7174;DHT22;3628;48.654;8.932;2024-02-23T07:05:44;3.90;99.90
7174;DHT22;3628;48.654;8.932;2024-02-23T07:08:15;3.90;99.90
7174;DHT22;3628;48.654;8.932;2024-02-23T07:10:40;3.90;99.90
7174;DHT22;3628;48.654;8.932;2024-02-23T07:13:06;4.00;99.90
7174;DHT22;3628;48.654;8.932;2024-02-23T07:15:32;4.00;99.90
7174;DHT22;3628;48.654;8.932;2024-02-23T07:17:59;4.00;99.90
7174;DHT22;3628;48.654;8.932;2024-02-23T07:20:24;4.00;99.90
7174;DHT22;3628;48.654;8.932;2024-02-23T07:22:50;4.10;99.90
7174;DHT22;3628;48.654;8.932;2024-02-23T07:25:16;4.10;99.90
7174;DHT22;3628;48.654;8.932;2024-02-23T07:27:42;4.10;99.90
7174;DHT22;3628;48.654;8.932;2024-02-23T07:30:08;4.10;99.90
7174;DHT22;3628;48.654;8.932;2024-02-23T07:32:34;4.20;99.90
7174;DHT22;3628;48.654;8.932;2024-02-23T07:35:00;4.20;99.90
7174;DHT22;3628;48.654;8.932;2024-02-23T07:37:29;4.20;99.90
7174;DHT22;3628;48.654;8.932;2024-02-23T07:39:54;4.30;99.90
7174;DHT22;3628;48.654;8.932;2024-02-23T07:42:20;4.30;99.90
7174;DHT22;3628;48.654;8.932;2024-02-23T07:44:46;4.40;99.90
7174;DHT22;3628;48.654;8.932;2024-02-23T07:47:12;4.40;99.90
7174;DHT22;3628;48.654;8.932;2024-02-23T07:49:37;4.40;99.90
7174;DHT22;3628;48.654;8.932;2024-02-23T07:52:03;4.40;99.90
7174;DHT22;3628;48.654;8.932;2024-02-23T07:54:29;4.40;99.90
7174;DHT22;3628;48.654;8.932;2024-02-23T07:56:55;4.40;99.90
7174;DHT22;3628;48.654;8.932;2024-02-23T07:59:20;4.40;99.90
7174;DHT22;3628;48.654;8.932;2024-02-23T08:01:46;4.40;99.90
7174;DHT22;3628;48.654;8.932;2024-02-23T08:04:12;4.30;99.90
7174;DHT22;3628;48.654;8.932;2024-02-23T08:06:39;4.40;99.90
7174;DHT22;3628;48.654;8.932;2024-02-23T08:09:04;4.40;99.90
7174;DHT22;3628;48.654;8.932;2024-02-23T08:11:30;4.40;99.90
7174;DHT22;3628;48.654;8.932;2024-02-23T08:13:56;4.40;99.90
7174;DHT22;3628;48.654;8.932;2024-02-23T08:16:21;4.40;99.90
7174;DHT22;3628;48.654;8.932;2024-02-23T08:18:47;4.40;99.90
7174;DHT22;3628;48.654;8.932;2024-02-23T08:21:13;4.40;99.90
7174;DHT22;3628;48.654;8.932;2024-02-23T08:23:38;4.40;99.90
7174;DHT22;3628;48.654;8.932;2024-02-23T08:26:04;4.50;99.90
7174;DHT22;3628;48.654;8.932;2024-02-23T08:28:31;4.50;99.90
7174;DHT22;3628;48.654;8.932;2024-02-23T08:30:56;4.50;99.90
7174;DHT22;3628;48.654;8.932;2024-02-23T08:33:22;4.50;99.90
7174;DHT22;3628;48.654;8.932;2024-02-23T08:35:47;4.50;99.90
7174;DHT22;3628;48.654;8.932;2024-02-23T08:38:14;4.50;99.90
7174;DHT22;3628;48.654;8.932;2024-02-23T08:40:40;4.50;99.90
7174;DHT22;3628;48.654;8.932;2024-02-23T08:43:05;4.50;99.90
7174;DHT22;3628;48.654;8.932;2024-02-23T08:45:31;4.40;99.90
7174;DHT22;3628;48.654;8.932;2024-02-23T08:47:57;4.40;99.90
7174;DHT22;3628;48.654;8.932;2024-02-23T08:50:22;4.40;99.90
7174;DHT22;3628;48.654;8.932;2024-02-23T08:52:48;4.40;99.90
7174;DHT22;3628;48.654;8.932;2024-02-23T08:55:13;4.50;99.90
7174;DHT22;3628;48.654;8.932;2024-02-23T08:57:39;4.50;99.90
7174;DHT22;3628;48.654;8.932;2024-02-23T09:00:05;4.50;99.90
7174;DHT22;3628;48.654;8.932;2024-02-23T09:02:31;4.60;99.90
7174;DHT22;3628;48.654;8.932;2024-02-23T09:05:01;4.60;99.90
7174;DHT22;3628;48.654;8.932;2024-02-23T09:07:26;4.70;99.90
7174;DHT22;3628;48.654;8.932;2024-02-23T09:09:52;4.80;99.90
7174;DHT22;3628;48.654;8.932;2024-02-23T09:12:19;4.80;99.90
7174;DHT22;3628;48.654;8.932;2024-02-23T09:14:45;4.80;99.90
7174;DHT22;3628;48.654;8.932;2024-02-23T09:17:11;4.90;99.90
7174;DHT22;3628;48.654;8.932;2024-02-23T09:19:38;4.90;99.90
7174;DHT22;3628;48.654;8.932;2024-02-23T09:22:06;4.90;99.90
7174;DHT22;3628;48.654;8.932;2024-02-23T09:24:32;5.00;99.90
7174;DHT22;3628;48.654;8.932;2024-02-23T09:26:58;5.10;99.90
7174;DHT22;3628;48.654;8.932;2024-02-23T09:29:24;5.30;99.90
7174;DHT22;3628;48.654;8.932;2024-02-23T09:31:49;5.40;99.90
7174;DHT22;3628;48.654;8.932;2024-02-23T09:34:15;5.60;99.90
7174;DHT22;3628;48.654;8.932;2024-02-23T09:36:40;5.70;99.90
7174;DHT22;3628;48.654;8.932;2024-02-23T09:39:06;5.90;99.90
7174;DHT22;3628;48.654;8.932;2024-02-23T09:41:32;6.00;99.90
7174;DHT22;3628;48.654;8.932;2024-02-23T09:44:01;6.10;99.90
7174;DHT22;3628;48.654;8.932;2024-02-23T09:46:27;6.10;99.90
7174;DHT22;3628;48.654;8.932;2024-02-23T09:48:53;6.00;99.90
7174;DHT22;3628;48.654;8.932;2024-02-23T09:51:21;6.00;99.90
7174;DHT22;3628;48.654;8.932;2024-02-23T09:53:49;6.10;99.90
7174;DHT22;3628;48.654;8.932;2024-02-23T09:56:16;6.20;99.90
7174;DHT22;3628;48.654;8.932;2024-02-23T09:58:44;6.20;99.90
7174;DHT22;3628;48.654;8.932;2024-02-23T10:01:10;6.20;99.90
7174;DHT22;3628;48.654;8.932;2024-02-23T10:03:37;6.20;99.90
7174;DHT22;3628;48.654;8.932;2024-02-23T10:06:04;6.30;99.90
7174;DHT22;3628;48.654;8.932;2024-02-23T10:08:33;6.40;99.90
7174;DHT22;3628;48.654;8.932;2024-02-23T10:11:00;6.60;99.90
7174;DHT22;3628;48.654;8.932;2024-02-23T10:13:26;6.70;99.90
7174;DHT22;3628;48.654;8.932;2024-02-23T10:15:52;6.90;99.90
7174;DHT22;3628;48.654;8.932;2024-02-23T10:18:18;7.00;99.90
7174;DHT22;3628;48.654;8.932;2024-02-23T10:20:44;7.20;99.90
7174;DHT22;3628;48.654;8.932;2024-02-23T10:23:10;7.40;99.90
7174;DHT22;3628;48.654;8.932;2024-02-23T10:25:36;7.40;99.90
7174;DHT22;3628;48.654;8.932;2024-02-23T10:28:11;7.50;99.90
7174;DHT22;3628;48.654;8.932;2024-02-23T10:30:37;7.50;99.90
7174;DHT22;3628;48.654;8.932;2024-02-23T10:33:05;7.50;99.90
7174;DHT22;3628;48.654;8.932;2024-02-23T10:35:32;7.40;99.90
7174;DHT22;3628;48.654;8.932;2024-02-23T10:38:01;7.50;99.90
7174;DHT22;3628;48.654;8.932;2024-02-23T10:40:28;7.50;99.90
7174;DHT22;3628;48.654;8.932;2024-02-23T10:42:57;7.50;99.90
7174;DHT22;3628;48.654;8.932;2024-02-23T10:45:25;7.50;99.90
7174;DHT22;3628;48.654;8.932;2024-02-23T10:47:53;7.60;99.90
7174;DHT22;3628;48.654;8.932;2024-02-23T10:50:22;7.80;99.90
7174;DHT22;3628;48.654;8.932;2024-02-23T10:52:51;8.00;99.90
7174;DHT22;3628;48.654;8.932;2024-02-23T10:55:17;8.00;99.90
7174;DHT22;3628;48.654;8.932;2024-02-23T10:57:43;8.10;99.90
7174;DHT22;3628;48.654;8.932;2024-02-23T11:00:10;8.10;99.90
7174;DHT22;3628;48.654;8.932;2024-02-23T11:02:40;8.10;99.90
7174;DHT22;3628;48.654;8.932;2024-02-23T11:05:07;7.90;99.90
7174;DHT22;3628;48.654;8.932;2024-02-23T11:07:38;7.90;99.90
7174;DHT22;3628;48.654;8.932;2024-02-23T11:10:05;7.90;99.90
7174;DHT22;3628;48.654;8.932;2024-02-23T11:12:31;8.00;99.90
7174;DHT22;3628;48.654;8.932;2024-02-23T11:14:57;8.10;99.90
7174;DHT22;3628;48.654;8.932;2024-02-23T11:17:27;8.10;99.90
7174;DHT22;3628;48.654;8.932;2024-02-23T11:19:55;8.10;99.90
7174;DHT22;3628;48.654;8.932;2024-02-23T11:22:31;8.10;99.90
7174;DHT22;3628;48.654;8.932;2024-02-23T11:25:07;8.10;99.90
7174;DHT22;3628;48.654;8.932;2024-02-23T11:27:37;8.20;99.90
7174;DHT22;3628;48.654;8.932;2024-02-23T11:30:07;8.10;99.90
7174;DHT22;3628;48.654;8.932;2024-02-23T11:32:47;8.20;99.90
7174;DHT22;3628;48.654;8.932;2024-02-23T11:35:17;8.30;99.90
7174;DHT22;3628;48.654;8.932;2024-02-23T11:37:53;8.30;99.90
7174;DHT22;3628;48.654;8.932;2024-02-23T11:40:32;8.20;99.90
7174;DHT22;3628;48.654;8.932;2024-02-23T11:42:58;8.10;99.90
7174;DHT22;3628;48.654;8.932;2024-02-23T11:45:30;8.10;99.90
7174;DHT22;3628;48.654;8.932;2024-02-23T11:47:56;8.20;99.90
7174;DHT22;3628;48.654;8.932;2024-02-23T11:50:22;8.20;99.90
7174;DHT22;3628;48.654;8.932;2024-02-23T11:52:47;8.20;99.90
7174;DHT22;3628;48.654;8.932;2024-02-23T11:55:21;8.20;99.90
7174;DHT22;3628;48.654;8.932;2024-02-23T11:57:50;8.20;99.90
7174;DHT22;3628;48.654;8.932;2024-02-23T12:00:16;8.30;99.90
7174;DHT22;3628;48.654;8.932;2024-02-23T12:02:43;8.30;99.90
7174;DHT22;3628;48.654;8.932;2024-02-23T12:05:10;8.40;99.90
7174;DHT22;3628;48.654;8.932;2024-02-23T12:07:36;8.40;99.90
7174;DHT22;3628;48.654;8.932;2024-02-23T12:10:01;8.50;99.90
7174;DHT22;3628;48.654;8.932;2024-02-23T12:12:29;8.60;99.90
7174;DHT22;3628;48.654;8.932;2024-02-23T12:14:54;8.70;99.90
7174;DHT22;3628;48.654;8.932;2024-02-23T12:17:20;8.60;99.90
7174;DHT22;3628;48.654;8.932;2024-02-23T12:19:45;8.60;99.90
7174;DHT22;3628;48.654;8.932;2024-02-23T12:22:11;8.50;99.90
7174;DHT22;3628;48.654;8.932;2024-02-23T12:24:41;8.40;99.90
7174;DHT22;3628;48.654;8.932;2024-02-23T12:27:07;8.40;99.90
7174;DHT22;3628;48.654;8.932;2024-02-23T12:29:32;8.30;99.90
7174;DHT22;3628;48.654;8.932;2024-02-23T12:32:07;8.30;99.90
7174;DHT22;3628;48.654;8.932;2024-02-23T12:34:33;8.20;99.90
7174;DHT22;3628;48.654;8.932;2024-02-23T12:37:01;8.20;99.90
7174;DHT22;3628;48.654;8.932;2024-02-23T12:39:27;8.10;99.90
7174;DHT22;3628;48.654;8.932;2024-02-23T12:41:52;8.10;99.90
7174;DHT22;3628;48.654;8.932;2024-02-23T12:44:18;8.10;99.90
7174;DHT22;3628;48.654;8.932;2024-02-23T12:46:44;8.00;99.90
7174;DHT22;3628;48.654;8.932;2024-02-23T12:49:09;8.10;99.90
7174;DHT22;3628;48.654;8.932;2024-02-23T12:51:35;8.20;99.90
7174;DHT22;3628;48.654;8.932;2024-02-23T12:54:00;8.20;99.90
7174;DHT22;3628;48.654;8.932;2024-02-23T12:56:26;8.20;99.90
7174;DHT22;3628;48.654;8.932;2024-02-23T12:58:52;8.20;99.90
7174;DHT22;3628;48.654;8.932;2024-02-23T13:01:19;8.20;99.90
7174;DHT22;3628;48.654;8.932;2024-02-23T13:03:45;8.20;99.90
7174;DHT22;3628;48.654;8.932;2024-02-23T13:06:11;8.10;99.90
7174;DHT22;3628;48.654;8.932;2024-02-23T13:08:38;8.00;99.90
7174;DHT22;3628;48.654;8.932;2024-02-23T13:11:05;8.00;99.90
7174;DHT22;3628;48.654;8.932;2024-02-23T13:13:31;8.00;99.90
7174;DHT22;3628;48.654;8.932;2024-02-23T13:15:57;7.90;99.90
7174;DHT22;3628;48.654;8.932;2024-02-23T13:18:23;8.00;99.90
7174;DHT22;3628;48.654;8.932;2024-02-23T13:20:48;8.00;99.90
7174;DHT22;3628;48.654;8.932;2024-02-23T13:23:14;7.90;99.90
7174;DHT22;3628;48.654;8.932;2024-02-23T13:25:41;7.90;99.90
7174;DHT22;3628;48.654;8.932;2024-02-23T13:28:07;8.00;99.90
7174;DHT22;3628;48.654;8.932;2024-02-23T13:30:35;7.90;99.90
7174;DHT22;3628;48.654;8.932;2024-02-23T13:33:01;7.90;99.90
7174;DHT22;3628;48.654;8.932;2024-02-23T13:35:27;7.90;99.90
7174;DHT22;3628;48.654;8.932;2024-02-23T13:37:53;8.00;99.90
7174;DHT22;3628;48.654;8.932;2024-02-23T13:40:19;8.00;99.90
7174;DHT22;3628;48.654;8.932;2024-02-23T13:42:44;8.00;99.90
7174;DHT22;3628;48.654;8.932;2024-02-23T13:45:15;8.10;99.90
7174;DHT22;3628;48.654;8.932;2024-02-23T13:47:42;8.20;99.90
7174;DHT22;3628;48.654;8.932;2024-02-23T13:50:09;8.20;99.90
7174;DHT22;3628;48.654;8.932;2024-02-23T13:52:34;8.10;99.90
7174;DHT22;3628;48.654;8.932;2024-02-23T13:55:00;8.10;99.90
7174;DHT22;3628;48.654;8.932;2024-02-23T13:57:26;8.10;99.90
7174;DHT22;3628;48.654;8.932;2024-02-23T13:59:51;8.20;99.90
7174;DHT22;3628;48.654;8.932;2024-02-23T14:02:25;8.30;99.90
7174;DHT22;3628;48.654;8.932;2024-02-23T14:04:51;8.50;99.90
7174;DHT22;3628;48.654;8.932;2024-02-23T14:07:17;8.80;99.90
7174;DHT22;3628;48.654;8.932;2024-02-23T14:09:43;9.10;99.90
7174;DHT22;3628;48.654;8.932;2024-02-23T14:12:09;9.20;99.90
7174;DHT22;3628;48.654;8.932;2024-02-23T14:14:34;9.20;99.90
7174;DHT22;3628;48.654;8.932;2024-02-23T14:17:00;9.20;99.90
7174;DHT22;3628;48.654;8.932;2024-02-23T14:19:25;9.20;99.90
7174;DHT22;3628;48.654;8.932;2024-02-23T14:21:52;9.10;99.90
7174;DHT22;3628;48.654;8.932;2024-02-23T14:24:17;9.00;99.90
7174;DHT22;3628;48.654;8.932;2024-02-23T14:26:43;9.00;99.90
7174;DHT22;3628;48.654;8.932;2024-02-23T14:29:09;8.90;99.90
7174;DHT22;3628;48.654;8.932;2024-02-23T14:31:34;8.90;99.90
7174;DHT22;3628;48.654;8.932;2024-02-23T14:34:00;8.70;99.90
7174;DHT22;3628;48.654;8.932;2024-02-23T14:36:25;8.70;99.90
7174;DHT22;3628;48.654;8.932;2024-02-23T14:38:51;8.60;99.90
7174;DHT22;3628;48.654;8.932;2024-02-23T14:41:17;8.50;99.90
7174;DHT22;3628;48.654;8.932;2024-02-23T14:43:43;8.40;99.90
7174;DHT22;3628;48.654;8.932;2024-02-23T14:46:08;8.40;99.90
7174;DHT22;3628;48.654;8.932;2024-02-23T14:48:34;8.30;99.90
7174;DHT22;3628;48.654;8.932;2024-02-23T14:51:00;8.40;99.90
7174;DHT22;3628;48.654;8.932;2024-02-23T14:53:29;8.30;99.90
7174;DHT22;3628;48.654;8.932;2024-02-23T14:55:54;8.30;99.90
7174;DHT22;3628;48.654;8.932;2024-02-23T14:58:20;8.30;99.90
7174;DHT22;3628;48.654;8.932;2024-02-23T15:00:45;8.20;99.90
7174;DHT22;3628;48.654;8.932;2024-02-23T15:03:12;8.20;99.90
7174;DHT22;3628;48.654;8.932;2024-02-23T15:05:38;8.20;99.90
7174;DHT22;3628;48.654;8.932;2024-02-23T15:08:04;8.30;99.90
7174;DHT22;3628;48.654;8.932;2024-02-23T15:10:29;8.30;99.90
7174;DHT22;3628;48.654;8.932;2024-02-23T15:12:55;8.30;99.90
7174;DHT22;3628;48.654;8.932;2024-02-23T15:15:21;8.20;99.90
7174;DHT22;3628;48.654;8.932;2024-02-23T15:17:46;8.20;99.90
7174;DHT22;3628;48.654;8.932;2024-02-23T15:20:14;8.20;99.90
7174;DHT22;3628;48.654;8.932;2024-02-23T15:22:39;8.20;99.90
7174;DHT22;3628;48.654;8.932;2024-02-23T15:25:08;8.30;99.90
7174;DHT22;3628;48.654;8.932;2024-02-23T15:27:34;8.10;99.90
7174;DHT22;3628;48.654;8.932;2024-02-23T15:30:00;8.10;99.90
7174;DHT22;3628;48.654;8.932;2024-02-23T15:32:26;8.20;99.90
7174;DHT22;3628;48.654;8.932;2024-02-23T15:34:51;8.40;99.90
7174;DHT22;3628;48.654;8.932;2024-02-23T15:37:17;8.50;99.90
7174;DHT22;3628;48.654;8.932;2024-02-23T15:39:42;8.60;99.90
7174;DHT22;3628;48.654;8.932;2024-02-23T15:42:08;8.60;99.90
7174;DHT22;3628;48.654;8.932;2024-02-23T15:44:34;8.50;99.90
7174;DHT22;3628;48.654;8.932;2024-02-23T15:46:59;8.50;99.90
7174;DHT22;3628;48.654;8.932;2024-02-23T15:49:25;8.50;99.90
7174;DHT22;3628;48.654;8.932;2024-02-23T15:51:50;8.40;99.90
7174;DHT22;3628;48.654;8.932;2024-02-23T15:54:16;8.40;99.90
7174;DHT22;3628;48.654;8.932;2024-02-23T15:56:42;8.40;99.90
7174;DHT22;3628;48.654;8.932;2024-02-23T15:59:08;8.30;99.90
7174;DHT22;3628;48.654;8.932;2024-02-23T16:01:36;8.30;99.90
7174;DHT22;3628;48.654;8.932;2024-02-23T16:04:02;8.30;99.90
7174;DHT22;3628;48.654;8.932;2024-02-23T16:06:28;8.30;99.90
7174;DHT22;3628;48.654;8.932;2024-02-23T16:08:59;8.30;99.90
7174;DHT22;3628;48.654;8.932;2024-02-23T16:11:24;8.30;99.90